sensor_id;sensor_type;location;lat;lon;timestamp;temperature;humidity
11532;DHT22;5822;51.000;5.874;2024-03-06T00:00:58;11.30;99.90
11532;DHT22;5822;51.000;5.874;2024-03-06T00:03:25;11.20;99.90
11532;DHT22;5822;51.000;5.874;2024-03-06T00:05:51;11.20;99.90
11532;DHT22;5822;51.000;5.874;2024-03-06T00:08:17;11.10;99.90
11532;DHT22;5822;51.000;5.874;2024-03-06T00:10:45;11.10;99.90
11532;DHT22;5822;51.000;5.874;2024-03-06T00:13:12;11.20;99.90
11532;DHT22;5822;51.000;5.874;2024-03-06T00:15:39;11.10;99.90
11532;DHT22;5822;51.000;5.874;2024-03-06T00:18:05;11.10;99.90
11532;DHT22;5822;51.000;5.874;2024-03-06T00:20:31;11.00;99.90
11532;DHT22;5822;51.000;5.874;2024-03-06T00:22:57;11.00;99.90
11532;DHT22;5822;51.000;5.874;2024-03-06T00:25:24;10.90;99.90
11532;DHT22;5822;51.000;5.874;2024-03-06T00:27:50;11.00;99.90
11532;DHT22;5822;51.000;5.874;2024-03-06T00:30:16;10.70;99.90
11532;DHT22;5822;51.000;5.874;2024-03-06T00:32:42;10.80;99.90
11532;DHT22;5822;51.000;5.874;2024-03-06T00:35:08;11.00;99.90
11532;DHT22;5822;51.000;5.874;2024-03-06T00:37:33;10.90;99.90
11532;DHT22;5822;51.000;5.874;2024-03-06T00:39:59;10.90;99.90
11532;DHT22;5822;51.000;5.874;2024-03-06T00:42:24;10.90;99.90
11532;DHT22;5822;51.000;5.874;2024-03-06T00:44:50;10.80;99.90
11532;DHT22;5822;51.000;5.874;2024-03-06T00:47:16;10.90;99.90
11532;DHT22;5822;51.000;5.874;2024-03-06T00:49:49;10.90;99.90
11532;DHT22;5822;51.000;5.874;2024-03-06T00:52:15;10.90;99.90
11532;DHT22;5822;51.000;5.874;2024-03-06T00:54:40;10.90;99.90
11532;DHT22;5822;51.000;5.874;2024-03-06T00:57:08;10.90;99.90
11532;DHT22;5822;51.000;5.874;2024-03-06T00:59:34;11.00;99.90
11532;DHT22;5822;51.000;5.874;2024-03-06T01:02:00;10.90;99.90
11532;DHT22;5822;51.000;5.874;2024-03-06T01:04:26;10.90;99.90
11532;DHT22;5822;51.000;5.874;2024-03-06T01:06:54;10.90;99.90
11532;DHT22;5822;51.000;5.874;2024-03-06T01:09:20;10.90;99.90
11532;DHT22;5822;51.000;5.874;2024-03-06T01:11:45;11.40;99.90
11532;DHT22;5822;51.000;5.874;2024-03-06T01:14:13;10.90;99.90
11532;DHT22;5822;51.000;5.874;2024-03-06T01:16:39;11.00;99.90
11532;DHT22;5822;51.000;5.874;2024-03-06T01:19:07;10.90;99.90
11532;DHT22;5822;51.000;5.874;2024-03-06T01:21:33;10.90;99.90
11532;DHT22;5822;51.000;5.874;2024-03-06T01:24:00;10.90;99.90
11532;DHT22;5822;51.000;5.874;2024-03-06T01:26:26;10.90;99.90
11532;DHT22;5822;51.000;5.874;2024-03-06T01:28:51;10.90;99.90
11532;DHT22;5822;51.000;5.874;2024-03-06T01:31:17;10.80;99.90
11532;DHT22;5822;51.000;5.874;2024-03-06T01:33:43;10.80;99.90
11532;DHT22;5822;51.000;5.874;2024-03-06T01:36:08;10.80;99.90
11532;DHT22;5822;51.000;5.874;2024-03-06T01:38:34;10.70;99.90
11532;DHT22;5822;51.000;5.874;2024-03-06T01:40:59;10.80;99.90
11532;DHT22;5822;51.000;5.874;2024-03-06T01:43:26;10.70;99.90
11532;DHT22;5822;51.000;5.874;2024-03-06T01:45:52;10.70;99.90
11532;DHT22;5822;51.000;5.874;2024-03-06T01:48:23;10.60;99.90
11532;DHT22;5822;51.000;5.874;2024-03-06T01:50:51;10.60;99.90
11532;DHT22;5822;51.000;5.874;2024-03-06T01:53:19;10.60;99.90
11532;DHT22;5822;51.000;5.874;2024-03-06T01:55:45;10.60;99.90
11532;DHT22;5822;51.000;5.874;2024-03-06T01:58:11;10.50;99.90
11532;DHT22;5822;51.000;5.874;2024-03-06T02:00:37;10.50;99.90
11532;DHT22;5822;51.000;5.874;2024-03-06T02:03:03;10.50;99.90
11532;DHT22;5822;51.000;5.874;2024-03-06T02:05:29;10.40;99.90
11532;DHT22;5822;51.000;5.874;2024-03-06T02:07:58;10.50;99.90
11532;DHT22;5822;51.000;5.874;2024-03-06T02:10:24;10.40;99.90
11532;DHT22;5822;51.000;5.874;2024-03-06T02:12:51;10.40;99.90
11532;DHT22;5822;51.000;5.874;2024-03-06T02:15:18;10.30;99.90
11532;DHT22;5822;51.000;5.874;2024-03-06T02:17:44;10.30;99.90
11532;DHT22;5822;51.000;5.874;2024-03-06T02:20:11;10.30;99.90
11532;DHT22;5822;51.000;5.874;2024-03-06T02:22:39;10.20;99.90
11532;DHT22;5822;51.000;5.874;2024-03-06T02:25:06;10.20;99.90
11532;DHT22;5822;51.000;5.874;2024-03-06T02:27:32;10.20;99.90
11532;DHT22;5822;51.000;5.874;2024-03-06T02:29:57;10.20;99.90
11532;DHT22;5822;51.000;5.874;2024-03-06T02:32:24;10.10;99.90
11532;DHT22;5822;51.000;5.874;2024-03-06T02:34:50;10.10;99.90
11532;DHT22;5822;51.000;5.874;2024-03-06T02:37:16;10.10;99.90
11532;DHT22;5822;51.000;5.874;2024-03-06T02:39:42;10.00;99.90
11532;DHT22;5822;51.000;5.874;2024-03-06T02:42:07;10.00;99.90
11532;DHT22;5822;51.000;5.874;2024-03-06T02:44:33;10.00;99.90
11532;DHT22;5822;51.000;5.874;2024-03-06T02:46:59;9.90;99.90
11532;DHT22;5822;51.000;5.874;2024-03-06T02:49:25;9.90;99.90
11532;DHT22;5822;51.000;5.874;2024-03-06T02:51:50;9.90;99.90
11532;DHT22;5822;51.000;5.874;2024-03-06T02:54:16;9.90;99.90
11532;DHT22;5822;51.000;5.874;2024-03-06T02:56:42;10.00;99.90
11532;DHT22;5822;51.000;5.874;2024-03-06T02:59:08;9.90;99.90
11532;DHT22;5822;51.000;5.874;2024-03-06T03:01:34;9.90;99.90
11532;DHT22;5822;51.000;5.874;2024-03-06T03:04:00;9.80;99.90
11532;DHT22;5822;51.000;5.874;2024-03-06T03:06:25;9.80;99.90
11532;DHT22;5822;51.000;5.874;2024-03-06T03:08:51;9.80;99.90
11532;DHT22;5822;51.000;5.874;2024-03-06T03:11:17;9.80;99.90
11532;DHT22;5822;51.000;5.874;2024-03-06T03:13:42;9.80;99.90
11532;DHT22;5822;51.000;5.874;2024-03-06T03:16:16;9.80;99.90
11532;DHT22;5822;51.000;5.874;2024-03-06T03:18:43;9.70;99.90
11532;DHT22;5822;51.000;5.874;2024-03-06T03:21:09;9.70;99.90
11532;DHT22;5822;51.000;5.874;2024-03-06T03:23:36;9.60;99.90
11532;DHT22;5822;51.000;5.874;2024-03-06T03:26:02;9.60;99.90
11532;DHT22;5822;51.000;5.874;2024-03-06T03:28:29;9.60;99.90
11532;DHT22;5822;51.000;5.874;2024-03-06T03:30:55;9.60;99.90
11532;DHT22;5822;51.000;5.874;2024-03-06T03:33:22;9.60;99.90
11532;DHT22;5822;51.000;5.874;2024-03-06T03:35:48;9.60;99.90
11532;DHT22;5822;51.000;5.874;2024-03-06T03:38:14;9.60;99.90
11532;DHT22;5822;51.000;5.874;2024-03-06T03:40:39;9.60;99.90
11532;DHT22;5822;51.000;5.874;2024-03-06T03:43:05;9.60;99.90
11532;DHT22;5822;51.000;5.874;2024-03-06T03:45:32;9.60;99.90
11532;DHT22;5822;51.000;5.874;2024-03-06T03:48:00;9.40;99.90
11532;DHT22;5822;51.000;5.874;2024-03-06T03:50:28;9.50;99.90
11532;DHT22;5822;51.000;5.874;2024-03-06T03:52:55;9.50;99.90
11532;DHT22;5822;51.000;5.874;2024-03-06T03:55:26;9.50;99.90
11532;DHT22;5822;51.000;5.874;2024-03-06T03:57:52;9.50;99.90
11532;DHT22;5822;51.000;5.874;2024-03-06T04:00:18;9.50;99.90
11532;DHT22;5822;51.000;5.874;2024-03-06T04:02:44;9.40;99.90
11532;DHT22;5822;51.000;5.874;2024-03-06T04:05:10;9.40;99.90
11532;DHT22;5822;51.000;5.874;2024-03-06T04:07:36;9.40;99.90
11532;DHT22;5822;51.000;5.874;2024-03-06T04:10:03;9.40;99.90
11532;DHT22;5822;51.000;5.874;2024-03-06T04:12:29;9.30;99.90
11532;DHT22;5822;51.000;5.874;2024-03-06T04:14:55;9.30;99.90
11532;DHT22;5822;51.000;5.874;2024-03-06T04:17:20;9.40;99.90
11532;DHT22;5822;51.000;5.874;2024-03-06T04:19:46;9.40;99.90
11532;DHT22;5822;51.000;5.874;2024-03-06T04:22:14;9.40;99.90
11532;DHT22;5822;51.000;5.874;2024-03-06T04:24:42;9.30;99.90
11532;DHT22;5822;51.000;5.874;2024-03-06T04:27:08;9.20;99.90
11532;DHT22;5822;51.000;5.874;2024-03-06T04:29:34;9.20;99.90
11532;DHT22;5822;51.000;5.874;2024-03-06T04:31:59;9.10;99.90
11532;DHT22;5822;51.000;5.874;2024-03-06T04:34:25;9.10;99.90
11532;DHT22;5822;51.000;5.874;2024-03-06T04:36:50;9.10;99.90
11532;DHT22;5822;51.000;5.874;2024-03-06T04:39:19;9.10;99.90
11532;DHT22;5822;51.000;5.874;2024-03-06T04:41:44;9.20;99.90
11532;DHT22;5822;51.000;5.874;2024-03-06T04:44:10;9.10;99.90
11532;DHT22;5822;51.000;5.874;2024-03-06T04:46:35;9.10;99.90
11532;DHT22;5822;51.000;5.874;2024-03-06T04:49:02;9.20;99.90
11532;DHT22;5822;51.000;5.874;2024-03-06T04:51:27;9.10;99.90
11532;DHT22;5822;51.000;5.874;2024-03-06T04:53:53;9.10;99.90
11532;DHT22;5822;51.000;5.874;2024-03-06T04:56:19;9.10;99.90
11532;DHT22;5822;51.000;5.874;2024-03-06T04:58:46;9.10;99.90
11532;DHT22;5822;51.000;5.874;2024-03-06T05:01:12;9.20;99.90
11532;DHT22;5822;51.000;5.874;2024-03-06T05:03:38;9.10;99.90
11532;DHT22;5822;51.000;5.874;2024-03-06T05:06:05;9.10;99.90
11532;DHT22;5822;51.000;5.874;2024-03-06T05:08:31;9.10;99.90
11532;DHT22;5822;51.000;5.874;2024-03-06T05:10:57;9.10;99.90
11532;DHT22;5822;51.000;5.874;2024-03-06T05:13:22;9.00;99.90
11532;DHT22;5822;51.000;5.874;2024-03-06T05:15:48;9.10;99.90
11532;DHT22;5822;51.000;5.874;2024-03-06T05:18:14;9.10;99.90
11532;DHT22;5822;51.000;5.874;2024-03-06T05:20:40;9.10;99.90
11532;DHT22;5822;51.000;5.874;2024-03-06T05:23:05;9.00;99.90
11532;DHT22;5822;51.000;5.874;2024-03-06T05:25:31;9.00;99.90
11532;DHT22;5822;51.000;5.874;2024-03-06T05:27:57;9.00;99.90
11532;DHT22;5822;51.000;5.874;2024-03-06T05:30:22;8.90;99.90
11532;DHT22;5822;51.000;5.874;2024-03-06T05:32:48;8.90;99.90
11532;DHT22;5822;51.000;5.874;2024-03-06T05:35:14;9.00;99.90
11532;DHT22;5822;51.000;5.874;2024-03-06T05:37:41;9.00;99.90
11532;DHT22;5822;51.000;5.874;2024-03-06T05:40:07;8.90;99.90
11532;DHT22;5822;51.000;5.874;2024-03-06T05:42:34;8.90;99.90
11532;DHT22;5822;51.000;5.874;2024-03-06T05:44:59;8.70;99.90
11532;DHT22;5822;51.000;5.874;2024-03-06T05:47:38;8.80;99.90
11532;DHT22;5822;51.000;5.874;2024-03-06T05:50:05;8.80;99.90
11532;DHT22;5822;51.000;5.874;2024-03-06T05:52:31;8.70;99.90
11532;DHT22;5822;51.000;5.874;2024-03-06T05:54:57;8.70;99.90
11532;DHT22;5822;51.000;5.874;2024-03-06T05:57:23;8.70;99.90
11532;DHT22;5822;51.000;5.874;2024-03-06T05:59:50;8.60;99.90
11532;DHT22;5822;51.000;5.874;2024-03-06T06:02:15;8.60;99.90
11532;DHT22;5822;51.000;5.874;2024-03-06T06:04:50;8.50;99.90
11532;DHT22;5822;51.000;5.874;2024-03-06T06:07:17;8.50;99.90
11532;DHT22;5822;51.000;5.874;2024-03-06T06:09:43;8.50;99.90
11532;DHT22;5822;51.000;5.874;2024-03-06T06:12:09;8.50;99.90
11532;DHT22;5822;51.000;5.874;2024-03-06T06:14:34;8.50;99.90
11532;DHT22;5822;51.000;5.874;2024-03-06T06:17:00;8.40;99.90
11532;DHT22;5822;51.000;5.874;2024-03-06T06:19:26;8.40;99.90
11532;DHT22;5822;51.000;5.874;2024-03-06T06:21:53;8.40;99.90
11532;DHT22;5822;51.000;5.874;2024-03-06T06:24:19;8.40;99.90
11532;DHT22;5822;51.000;5.874;2024-03-06T06:26:45;8.30;99.90
11532;DHT22;5822;51.000;5.874;2024-03-06T06:29:10;8.30;99.90
11532;DHT22;5822;51.000;5.874;2024-03-06T06:31:36;8.40;99.90
11532;DHT22;5822;51.000;5.874;2024-03-06T06:34:02;8.40;99.90
11532;DHT22;5822;51.000;5.874;2024-03-06T06:36:27;8.30;99.90
11532;DHT22;5822;51.000;5.874;2024-03-06T06:38:53;8.40;99.90
11532;DHT22;5822;51.000;5.874;2024-03-06T06:41:19;8.40;99.90
11532;DHT22;5822;51.000;5.874;2024-03-06T06:43:45;8.40;99.90
11532;DHT22;5822;51.000;5.874;2024-03-06T06:46:11;8.30;99.90
11532;DHT22;5822;51.000;5.874;2024-03-06T06:48:36;8.30;99.90
11532;DHT22;5822;51.000;5.874;2024-03-06T06:51:02;8.40;99.90
11532;DHT22;5822;51.000;5.874;2024-03-06T06:53:31;8.40;99.90
11532;DHT22;5822;51.000;5.874;2024-03-06T06:55:57;8.30;99.90
11532;DHT22;5822;51.000;5.874;2024-03-06T06:58:23;8.30;99.90
11532;DHT22;5822;51.000;5.874;2024-03-06T07:00:49;8.40;99.90
11532;DHT22;5822;51.000;5.874;2024-03-06T07:03:16;8.30;99.90
11532;DHT22;5822;51.000;5.874;2024-03-06T07:05:41;8.30;99.90
11532;DHT22;5822;51.000;5.874;2024-03-06T07:08:07;8.30;99.90
11532;DHT22;5822;51.000;5.874;2024-03-06T07:10:33;8.30;99.90
11532;DHT22;5822;51.000;5.874;2024-03-06T07:13:01;8.40;99.90
11532;DHT22;5822;51.000;5.874;2024-03-06T07:15:28;8.40;99.90
11532;DHT22;5822;51.000;5.874;2024-03-06T07:17:54;8.50;99.90
11532;DHT22;5822;51.000;5.874;2024-03-06T07:20:19;8.50;99.90
11532;DHT22;5822;51.000;5.874;2024-03-06T07:22:45;8.50;99.90
11532;DHT22;5822;51.000;5.874;2024-03-06T07:25:11;8.60;99.90
11532;DHT22;5822;51.000;5.874;2024-03-06T07:27:37;8.60;99.90
11532;DHT22;5822;51.000;5.874;2024-03-06T07:30:03;8.60;99.90
11532;DHT22;5822;51.000;5.874;2024-03-06T07:32:28;8.60;99.90
11532;DHT22;5822;51.000;5.874;2024-03-06T07:34:54;8.70;99.90
11532;DHT22;5822;51.000;5.874;2024-03-06T07:37:20;8.80;99.90
11532;DHT22;5822;51.000;5.874;2024-03-06T07:39:46;8.70;99.90
11532;DHT22;5822;51.000;5.874;2024-03-06T07:42:11;8.70;99.90
11532;DHT22;5822;51.000;5.874;2024-03-06T07:44:38;8.80;99.90
11532;DHT22;5822;51.000;5.874;2024-03-06T07:47:03;8.80;99.90
11532;DHT22;5822;51.000;5.874;2024-03-06T07:49:29;8.90;99.90
11532;DHT22;5822;51.000;5.874;2024-03-06T07:51:57;8.90;99.90
11532;DHT22;5822;51.000;5.874;2024-03-06T07:54:23;8.90;99.90
11532;DHT22;5822;51.000;5.874;2024-03-06T07:56:48;9.00;99.90
11532;DHT22;5822;51.000;5.874;2024-03-06T07:59:14;9.00;99.90
11532;DHT22;5822;51.000;5.874;2024-03-06T08:01:42;9.10;99.90
11532;DHT22;5822;51.000;5.874;2024-03-06T08:04:07;9.10;99.90
11532;DHT22;5822;51.000;5.874;2024-03-06T08:06:33;9.20;99.90
11532;DHT22;5822;51.000;5.874;2024-03-06T08:08:59;9.20;99.90
11532;DHT22;5822;51.000;5.874;2024-03-06T08:11:25;9.30;99.90
11532;DHT22;5822;51.000;5.874;2024-03-06T08:13:57;9.20;99.90
11532;DHT22;5822;51.000;5.874;2024-03-06T08:16:23;9.20;99.90
11532;DHT22;5822;51.000;5.874;2024-03-06T08:18:49;9.20;99.90
11532;DHT22;5822;51.000;5.874;2024-03-06T08:21:14;9.30;99.90
11532;DHT22;5822;51.000;5.874;2024-03-06T08:23:43;9.40;99.90
11532;DHT22;5822;51.000;5.874;2024-03-06T08:26:10;9.40;99.90
11532;DHT22;5822;51.000;5.874;2024-03-06T08:28:35;9.50;99.90
11532;DHT22;5822;51.000;5.874;2024-03-06T08:31:02;9.50;99.90
11532;DHT22;5822;51.000;5.874;2024-03-06T08:33:27;9.70;99.90
11532;DHT22;5822;51.000;5.874;2024-03-06T08:35:53;9.60;99.90
11532;DHT22;5822;51.000;5.874;2024-03-06T08:38:18;9.70;99.90
11532;DHT22;5822;51.000;5.874;2024-03-06T08:40:44;9.70;99.90
11532;DHT22;5822;51.000;5.874;2024-03-06T08:43:12;9.70;99.90
11532;DHT22;5822;51.000;5.874;2024-03-06T08:45:38;9.80;99.90
11532;DHT22;5822;51.000;5.874;2024-03-06T08:48:04;9.80;99.90
11532;DHT22;5822;51.000;5.874;2024-03-06T08:50:31;9.90;99.90
11532;DHT22;5822;51.000;5.874;2024-03-06T08:52:56;9.90;99.90
11532;DHT22;5822;51.000;5.874;2024-03-06T08:55:22;9.90;99.90
11532;DHT22;5822;51.000;5.874;2024-03-06T08:57:48;10.00;99.90
11532;DHT22;5822;51.000;5.874;2024-03-06T09:00:15;10.00;99.90
11532;DHT22;5822;51.000;5.874;2024-03-06T09:02:42;10.00;99.90
11532;DHT22;5822;51.000;5.874;2024-03-06T09:05:08;10.00;99.90
11532;DHT22;5822;51.000;5.874;2024-03-06T09:07:36;10.00;99.90
11532;DHT22;5822;51.000;5.874;2024-03-06T09:10:12;10.10;99.90
11532;DHT22;5822;51.000;5.874;2024-03-06T09:12:39;10.20;99.90
11532;DHT22;5822;51.000;5.874;2024-03-06T09:15:05;10.30;99.90
11532;DHT22;5822;51.000;5.874;2024-03-06T09:17:34;10.30;99.90
11532;DHT22;5822;51.000;5.874;2024-03-06T09:20:00;10.30;99.90
11532;DHT22;5822;51.000;5.874;2024-03-06T09:22:38;10.40;99.90
11532;DHT22;5822;51.000;5.874;2024-03-06T09:25:05;10.40;99.90
11532;DHT22;5822;51.000;5.874;2024-03-06T09:27:31;10.50;99.90
11532;DHT22;5822;51.000;5.874;2024-03-06T09:29:57;10.50;99.90
11532;DHT22;5822;51.000;5.874;2024-03-06T09:32:22;10.50;99.90
11532;DHT22;5822;51.000;5.874;2024-03-06T09:34:48;10.60;99.90
11532;DHT22;5822;51.000;5.874;2024-03-06T09:37:15;10.60;99.90
11532;DHT22;5822;51.000;5.874;2024-03-06T09:39:41;10.60;99.90
11532;DHT22;5822;51.000;5.874;2024-03-06T09:42:07;10.60;99.90
11532;DHT22;5822;51.000;5.874;2024-03-06T09:44:33;10.70;99.90
11532;DHT22;5822;51.000;5.874;2024-03-06T09:47:02;10.70;99.90
11532;DHT22;5822;51.000;5.874;2024-03-06T09:49:31;10.70;99.90
11532;DHT22;5822;51.000;5.874;2024-03-06T09:51:58;10.70;99.90
11532;DHT22;5822;51.000;5.874;2024-03-06T09:54:25;10.70;99.90
11532;DHT22;5822;51.000;5.874;2024-03-06T09:56:52;10.70;99.90
11532;DHT22;5822;51.000;5.874;2024-03-06T09:59:20;10.70;99.90
11532;DHT22;5822;51.000;5.874;2024-03-06T10:02:00;10.80;99.90
11532;DHT22;5822;51.000;5.874;2024-03-06T10:04:29;10.80;99.90
11532;DHT22;5822;51.000;5.874;2024-03-06T10:06:56;10.80;99.90
11532;DHT22;5822;51.000;5.874;2024-03-06T10:09:22;10.80;99.90
11532;DHT22;5822;51.000;5.874;2024-03-06T10:11:48;10.90;99.90
11532;DHT22;5822;51.000;5.874;2024-03-06T10:14:14;10.90;99.90
11532;DHT22;5822;51.000;5.874;2024-03-06T10:16:57;10.90;99.90
11532;DHT22;5822;51.000;5.874;2024-03-06T10:19:25;10.90;99.90
11532;DHT22;5822;51.000;5.874;2024-03-06T10:21:53;11.20;99.90
11532;DHT22;5822;51.000;5.874;2024-03-06T10:24:23;11.10;99.90
11532;DHT22;5822;51.000;5.874;2024-03-06T10:26:50;11.20;99.90
11532;DHT22;5822;51.000;5.874;2024-03-06T10:29:17;11.20;99.90
11532;DHT22;5822;51.000;5.874;2024-03-06T10:31:51;11.20;99.90
11532;DHT22;5822;51.000;5.874;2024-03-06T10:34:17;11.30;99.90
11532;DHT22;5822;51.000;5.874;2024-03-06T10:36:43;11.30;99.90
11532;DHT22;5822;51.000;5.874;2024-03-06T10:39:12;11.40;99.90
11532;DHT22;5822;51.000;5.874;2024-03-06T10:41:41;11.50;99.90
11532;DHT22;5822;51.000;5.874;2024-03-06T10:44:20;11.50;99.90
11532;DHT22;5822;51.000;5.874;2024-03-06T10:46:59;11.70;99.90
11532;DHT22;5822;51.000;5.874;2024-03-06T10:49:30;11.60;99.90
11532;DHT22;5822;51.000;5.874;2024-03-06T10:52:00;11.70;99.90
11532;DHT22;5822;51.000;5.874;2024-03-06T10:54:30;11.70;99.90
11532;DHT22;5822;51.000;5.874;2024-03-06T10:56:58;11.90;99.90
11532;DHT22;5822;51.000;5.874;2024-03-06T10:59:28;11.90;99.90
11532;DHT22;5822;51.000;5.874;2024-03-06T11:01:58;11.90;99.90
11532;DHT22;5822;51.000;5.874;2024-03-06T11:04:27;12.00;99.90
11532;DHT22;5822;51.000;5.874;2024-03-06T11:06:55;12.00;99.90
11532;DHT22;5822;51.000;5.874;2024-03-06T11:09:21;11.90;99.90
11532;DHT22;5822;51.000;5.874;2024-03-06T11:11:51;12.00;99.90
11532;DHT22;5822;51.000;5.874;2024-03-06T11:14:18;12.10;99.90
11532;DHT22;5822;51.000;5.874;2024-03-06T11:19:23;12.10;99.90
11532;DHT22;5822;51.000;5.874;2024-03-06T11:21:48;12.20;99.90
11532;DHT22;5822;51.000;5.874;2024-03-06T11:24:16;12.20;99.90
11532;DHT22;5822;51.000;5.874;2024-03-06T11:26:46;12.20;99.90
11532;DHT22;5822;51.000;5.874;2024-03-06T11:29:11;12.30;99.90
11532;DHT22;5822;51.000;5.874;2024-03-06T11:31:37;12.30;99.90
11532;DHT22;5822;51.000;5.874;2024-03-06T11:34:04;12.30;99.90
11532;DHT22;5822;51.000;5.874;2024-03-06T11:36:30;12.40;99.90
11532;DHT22;5822;51.000;5.874;2024-03-06T11:39:01;12.30;99.90
11532;DHT22;5822;51.000;5.874;2024-03-06T11:44:13;12.60;99.90
11532;DHT22;5822;51.000;5.874;2024-03-06T11:46:57;12.60;99.90
11532;DHT22;5822;51.000;5.874;2024-03-06T11:49:24;12.70;99.90
11532;DHT22;5822;51.000;5.874;2024-03-06T11:51:55;12.70;99.90
11532;DHT22;5822;51.000;5.874;2024-03-06T11:54:22;12.70;99.90
11532;DHT22;5822;51.000;5.874;2024-03-06T11:56:56;12.80;99.90
11532;DHT22;5822;51.000;5.874;2024-03-06T11:59:32;12.80;99.90
11532;DHT22;5822;51.000;5.874;2024-03-06T12:02:00;12.90;99.90
11532;DHT22;5822;51.000;5.874;2024-03-06T12:04:30;12.80;99.90
11532;DHT22;5822;51.000;5.874;2024-03-06T12:06:59;12.90;99.90
11532;DHT22;5822;51.000;5.874;2024-03-06T12:09:26;12.90;99.90
11532;DHT22;5822;51.000;5.874;2024-03-06T12:11:52;13.00;99.90
11532;DHT22;5822;51.000;5.874;2024-03-06T12:14:19;13.10;99.90
11532;DHT22;5822;51.000;5.874;2024-03-06T12:16:55;13.00;99.90
11532;DHT22;5822;51.000;5.874;2024-03-06T12:19:22;13.00;99.90
11532;DHT22;5822;51.000;5.874;2024-03-06T12:21:48;13.00;99.90
11532;DHT22;5822;51.000;5.874;2024-03-06T12:24:16;13.10;99.90
11532;DHT22;5822;51.000;5.874;2024-03-06T12:26:44;13.10;99.90
11532;DHT22;5822;51.000;5.874;2024-03-06T12:29:17;13.00;99.90
11532;DHT22;5822;51.000;5.874;2024-03-06T12:31:44;13.10;99.90
11532;DHT22;5822;51.000;5.874;2024-03-06T12:34:14;12.90;99.90
11532;DHT22;5822;51.000;5.874;2024-03-06T12:36:42;12.80;99.90
11532;DHT22;5822;51.000;5.874;2024-03-06T12:39:08;12.80;99.90
11532;DHT22;5822;51.000;5.874;2024-03-06T12:41:39;13.00;99.90
11532;DHT22;5822;51.000;5.874;2024-03-06T12:44:05;12.90;99.90
11532;DHT22;5822;51.000;5.874;2024-03-06T12:46:32;12.90;99.90
11532;DHT22;5822;51.000;5.874;2024-03-06T12:48:57;12.90;99.90
11532;DHT22;5822;51.000;5.874;2024-03-06T12:51:23;12.80;99.90
11532;DHT22;5822;51.000;5.874;2024-03-06T12:53:49;12.70;99.90
11532;DHT22;5822;51.000;5.874;2024-03-06T12:56:15;12.70;99.90
11532;DHT22;5822;51.000;5.874;2024-03-06T12:58:41;12.70;99.90
11532;DHT22;5822;51.000;5.874;2024-03-06T13:01:07;12.60;99.90
11532;DHT22;5822;51.000;5.874;2024-03-06T13:03:33;12.60;99.90
11532;DHT22;5822;51.000;5.874;2024-03-06T13:05:59;12.50;99.90
11532;DHT22;5822;51.000;5.874;2024-03-06T13:08:25;12.60;99.90
11532;DHT22;5822;51.000;5.874;2024-03-06T13:10:50;12.60;99.90
11532;DHT22;5822;51.000;5.874;2024-03-06T13:13:16;12.60;99.90
11532;DHT22;5822;51.000;5.874;2024-03-06T13:15:42;12.70;99.90
11532;DHT22;5822;51.000;5.874;2024-03-06T13:18:08;12.80;99.90
11532;DHT22;5822;51.000;5.874;2024-03-06T13:20:34;12.70;99.90
11532;DHT22;5822;51.000;5.874;2024-03-06T13:23:00;12.70;99.90
11532;DHT22;5822;51.000;5.874;2024-03-06T13:25:26;12.80;99.90
11532;DHT22;5822;51.000;5.874;2024-03-06T13:27:52;12.80;99.90
11532;DHT22;5822;51.000;5.874;2024-03-06T13:30:18;12.90;99.90
11532;DHT22;5822;51.000;5.874;2024-03-06T13:32:44;12.80;99.90
11532;DHT22;5822;51.000;5.874;2024-03-06T13:35:11;12.80;99.90
11532;DHT22;5822;51.000;5.874;2024-03-06T13:37:40;12.90;99.90
11532;DHT22;5822;51.000;5.874;2024-03-06T13:40:07;12.90;99.90
11532;DHT22;5822;51.000;5.874;2024-03-06T13:42:34;12.80;99.90
11532;DHT22;5822;51.000;5.874;2024-03-06T13:45:01;13.00;99.90
11532;DHT22;5822;51.000;5.874;2024-03-06T13:47:26;12.80;99.90
11532;DHT22;5822;51.000;5.874;2024-03-06T13:49:52;12.80;99.90
11532;DHT22;5822;51.000;5.874;2024-03-06T13:52:18;12.80;99.90
11532;DHT22;5822;51.000;5.874;2024-03-06T13:54:46;12.80;99.90
11532;DHT22;5822;51.000;5.874;2024-03-06T13:57:13;12.20;99.90
11532;DHT22;5822;51.000;5.874;2024-03-06T13:59:39;12.90;99.90
11532;DHT22;5822;51.000;5.874;2024-03-06T14:02:06;12.90;99.90
11532;DHT22;5822;51.000;5.874;2024-03-06T14:04:32;13.00;99.90
11532;DHT22;5822;51.000;5.874;2024-03-06T14:06:58;12.90;99.90
11532;DHT22;5822;51.000;5.874;2024-03-06T14:09:24;12.90;99.90
11532;DHT22;5822;51.000;5.874;2024-03-06T14:11:51;13.00;99.90
11532;DHT22;5822;51.000;5.874;2024-03-06T14:14:17;13.00;99.90
11532;DHT22;5822;51.000;5.874;2024-03-06T14:16:43;12.90;99.90
11532;DHT22;5822;51.000;5.874;2024-03-06T14:19:09;13.00;99.90
11532;DHT22;5822;51.000;5.874;2024-03-06T14:21:36;13.00;99.90
11532;DHT22;5822;51.000;5.874;2024-03-06T14:24:02;12.90;99.90
11532;DHT22;5822;51.000;5.874;2024-03-06T14:26:34;12.80;99.90
11532;DHT22;5822;51.000;5.874;2024-03-06T14:29:01;12.90;99.90
11532;DHT22;5822;51.000;5.874;2024-03-06T14:31:28;13.00;99.90
11532;DHT22;5822;51.000;5.874;2024-03-06T14:33:54;12.90;99.90
11532;DHT22;5822;51.000;5.874;2024-03-06T14:36:22;13.00;99.90
11532;DHT22;5822;51.000;5.874;2024-03-06T14:38:50;13.00;99.90
11532;DHT22;5822;51.000;5.874;2024-03-06T14:41:18;13.10;99.90
11532;DHT22;5822;51.000;5.874;2024-03-06T14:43:44;13.10;99.90
11532;DHT22;5822;51.000;5.874;2024-03-06T14:46:11;13.20;99.90
11532;DHT22;5822;51.000;5.874;2024-03-06T14:48:38;13.20;99.90
11532;DHT22;5822;51.000;5.874;2024-03-06T14:51:04;13.30;99.90
11532;DHT22;5822;51.000;5.874;2024-03-06T14:53:30;13.20;99.90
11532;DHT22;5822;51.000;5.874;2024-03-06T14:55:56;13.30;99.90
11532;DHT22;5822;51.000;5.874;2024-03-06T14:58:22;13.30;99.90
11532;DHT22;5822;51.000;5.874;2024-03-06T15:00:49;13.40;99.90
11532;DHT22;5822;51.000;5.874;2024-03-06T15:03:14;13.40;99.90
11532;DHT22;5822;51.000;5.874;2024-03-06T15:05:40;13.60;99.90
11532;DHT22;5822;51.000;5.874;2024-03-06T15:08:06;13.50;99.90
11532;DHT22;5822;51.000;5.874;2024-03-06T15:10:31;13.60;99.90
11532;DHT22;5822;51.000;5.874;2024-03-06T15:12:58;13.60;99.90
11532;DHT22;5822;51.000;5.874;2024-03-06T15:15:24;13.70;99.90
11532;DHT22;5822;51.000;5.874;2024-03-06T15:17:49;13.90;99.90
11532;DHT22;5822;51.000;5.874;2024-03-06T15:20:15;13.80;99.90
11532;DHT22;5822;51.000;5.874;2024-03-06T15:22:43;13.80;99.90
11532;DHT22;5822;51.000;5.874;2024-03-06T15:25:12;13.90;99.90
11532;DHT22;5822;51.000;5.874;2024-03-06T15:27:39;14.00;99.90
11532;DHT22;5822;51.000;5.874;2024-03-06T15:30:09;13.90;99.90
11532;DHT22;5822;51.000;5.874;2024-03-06T15:32:35;13.80;99.90
11532;DHT22;5822;51.000;5.874;2024-03-06T15:35:01;13.90;99.90
11532;DHT22;5822;51.000;5.874;2024-03-06T15:37:29;13.80;99.90
11532;DHT22;5822;51.000;5.874;2024-03-06T15:39:55;13.80;99.90
11532;DHT22;5822;51.000;5.874;2024-03-06T15:42:22;13.90;99.90
11532;DHT22;5822;51.000;5.874;2024-03-06T15:44:48;13.60;99.90
11532;DHT22;5822;51.000;5.874;2024-03-06T15:47:18;13.60;99.90
11532;DHT22;5822;51.000;5.874;2024-03-06T15:49:45;13.60;99.90
11532;DHT22;5822;51.000;5.874;2024-03-06T15:52:14;13.60;99.90
11532;DHT22;5822;51.000;5.874;2024-03-06T15:54:40;13.50;99.90